Time;durP1;ratioP1;P1;durP2;ratioP2;P2;SDS_P1;SDS_P2;PMS_P1;PMS_P2;Temp;Humidity;BMP_temperature;BMP_pressure;BME280_temperature;BME280_humidity;BME280_pressure;Samples;Min_cycle;Max_cycle;Signal;HPM_P1;HPM_P2
2023/03/09 00:01:53;;;;;;;15.95;12.00;;;;;;;5.68;66.79;97672.25;5027403;28;20064;-59
2023/03/09 00:04:24;;;;;;;14.77;11.10;;;;;;;5.66;66.97;97665.50;5028939;28;20484;-59
2023/03/09 00:06:55;;;;;;;16.60;13.00;;;;;;;5.58;66.47;97670.00;5028499;28;20502;-58
2023/03/09 00:09:24;;;;;;;15.98;12.25;;;;;;;5.57;66.66;97671.16;5027649;28;20054;-59
2023/03/09 00:11:51;;;;;;;16.17;13.13;;;;;;;5.50;66.88;97673.69;5030466;28;20053;-58
2023/03/09 00:14:21;;;;;;;16.58;12.38;;;;;;;5.49;66.49;97680.38;5029449;28;20096;-58
2023/03/09 00:16:48;;;;;;;15.85;11.93;;;;;;;5.48;66.73;97676.81;5025708;28;20049;-59
2023/03/09 00:19:20;;;;;;;14.80;11.63;;;;;;;5.45;66.92;97668.44;5026766;28;20060;-59
2023/03/09 00:21:51;;;;;;;15.35;12.05;;;;;;;5.43;66.96;97673.50;5029521;28;20053;-58
2023/03/09 00:24:20;;;;;;;16.17;12.63;;;;;;;5.44;67.15;97670.41;5021947;28;20045;-59
2023/03/09 00:26:53;;;;;;;14.50;11.50;;;;;;;5.39;67.79;97689.94;5027979;28;20053;-59
2023/03/09 00:29:20;;;;;;;14.05;10.68;;;;;;;5.42;67.28;97674.66;5026640;28;20054;-59
2023/03/09 00:31:47;;;;;;;15.13;11.25;;;;;;;5.45;67.56;97671.19;5028172;28;20049;-59
2023/03/09 00:34:17;;;;;;;14.02;10.85;;;;;;;5.43;67.59;97673.50;5026511;28;20456;-58
2023/03/09 00:36:45;;;;;;;;;;;;;;;5.35;67.52;97679.97;5029889;28;20392;-58
2023/03/09 00:39:14;;;;;;;13.43;10.32;;;;;;;5.42;67.69;97666.38;5027409;28;20263;-58
2023/03/09 00:41:41;;;;;;;13.63;10.68;;;;;;;5.41;67.14;97675.81;5019685;28;20053;-59
2023/03/09 00:44:12;;;;;;;13.57;10.27;;;;;;;5.45;66.90;97676.72;5028849;28;20064;-58
2023/03/09 00:46:40;;;;;;;13.23;10.88;;;;;;;5.40;67.18;97679.72;5027449;28;20060;-58
2023/03/09 00:49:10;;;;;;;13.77;10.82;;;;;;;5.39;67.36;97687.19;5028881;28;20495;-58
2023/03/09 00:51:41;;;;;;;12.35;9.70;;;;;;;5.39;67.61;97681.66;5026340;28;20061;-58
2023/03/09 00:54:11;;;;;;;15.38;11.60;;;;;;;5.44;67.63;97680.63;5028664;28;20065;-58
2023/03/09 00:56:38;;;;;;;;;;;;;;;5.49;68.08;97691.44;5029615;28;20056;-58
2023/03/09 00:59:06;;;;;;;12.63;9.95;;;;;;;5.52;67.76;97698.19;5029039;28;20290;-58
2023/03/09 01:01:34;;;;;;;14.35;11.40;;;;;;;5.53;67.23;97700.63;5024669;28;20064;-59
2023/03/09 01:04:02;;;;;;;12.82;10.00;;;;;;;5.54;67.37;97691.16;5027743;28;20056;-58
2023/03/09 01:06:29;;;;;;;15.48;10.45;;;;;;;5.57;67.41;97701.53;5029025;28;20052;-58
2023/03/09 01:08:59;;;;;;;14.00;11.15;;;;;;;5.62;67.05;97698.50;5028168;28;20407;-58
2023/03/09 01:11:26;;;;;;;14.48;11.05;;;;;;;5.60;67.18;97703.56;5028105;28;20412;-59
2023/03/09 01:13:54;;;;;;;13.15;11.02;;;;;;;5.62;67.20;97708.75;5026723;28;20057;-59
2023/03/09 01:16:21;;;;;;;13.48;10.55;;;;;;;5.63;67.48;97710.38;5025639;28;20049;-60
2023/03/09 01:18:50;;;;;;;14.95;10.82;;;;;;;5.61;66.70;97702.44;5028116;28;20049;-59
2023/03/09 01:21:20;;;;;;;13.40;10.48;;;;;;;5.56;66.64;97699.91;5028881;28;20057;-59
2023/03/09 01:23:47;;;;;;;14.10;11.23;;;;;;;5.55;66.96;97692.78;5026256;28;20053;-59
2023/03/09 01:26:15;;;;;;;13.15;9.85;;;;;;;5.55;66.56;97698.31;5027852;28;20389;-60
2023/03/09 01:28:47;;;;;;;12.23;9.80;;;;;;;5.51;66.74;97689.13;5029000;28;20050;-58
2023/03/09 01:31:16;;;;;;;12.45;9.82;;;;;;;5.41;66.85;97698.69;5026738;28;20415;-58
2023/03/09 01:33:44;;;;;;;13.25;10.43;;;;;;;5.40;67.33;97699.06;5027312;28;20492;-59
2023/03/09 01:36:15;;;;;;;13.80;10.63;;;;;;;5.43;66.81;97701.91;5027521;28;20484;-59
2023/03/09 01:38:42;;;;;;;12.23;9.98;;;;;;;5.47;67.03;97704.78;5028133;28;20072;-60
2023/03/09 01:41:11;;;;;;;12.40;9.60;;;;;;;5.44;66.91;97699.97;5026127;28;20049;-60
2023/03/09 01:43:40;;;;;;;12.93;10.15;;;;;;;5.41;67.42;97695.13;5031116;28;20399;-60
2023/03/09 01:46:28;;;;;;;12.25;9.43;;;;;;;5.45;67.27;97705.13;5029702;28;20045;-60
2023/03/09 01:48:59;;;;;;;12.40;9.95;;;;;;;5.49;67.05;97702.47;5030975;28;20056;-60
2023/03/09 01:51:33;;;;;;;14.05;10.18;;;;;;;5.48;66.96;97700.84;5030299;28;20061;-60
2023/03/09 01:54:03;;;;;;;12.68;9.75;;;;;;;5.49;66.52;97703.25;5033098;28;20060;-60
2023/03/09 01:56:31;;;;;;;12.43;9.40;;;;;;;5.47;66.36;97702.00;5030308;28;20441;-60
2023/03/09 01:59:01;;;;;;;12.02;9.30;;;;;;;5.49;66.77;97727.31;5030508;28;20054;-60
2023/03/09 02:01:29;;;;;;;12.13;9.50;;;;;;;5.49;66.65;97741.13;5027589;28;20399;-59
2023/03/09 02:04:03;;;;;;;12.63;9.55;;;;;;;5.43;66.76;97748.03;5030490;28;20049;-60
2023/03/09 02:06:33;;;;;;;11.55;8.88;;;;;;;5.40;66.57;97757.03;5032363;28;20066;-60
2023/03/09 02:09:09;;;;;;;14.95;11.05;;;;;;;5.24;67.62;97760.47;5031863;28;20053;-60
2023/03/09 02:11:37;;;;;;;13.75;10.13;;;;;;;5.27;66.72;97754.25;5027569;28;20058;-60
2023/03/09 02:14:05;;;;;;;14.27;10.98;;;;;;;5.30;66.48;97763.81;5030304;28;20049;-60
2023/03/09 02:16:32;;;;;;;13.40;10.23;;;;;;;5.32;66.59;97771.75;5027862;28;20050;-60
2023/03/09 02:19:00;;;;;;;13.52;10.63;;;;;;;5.30;66.51;97777.59;5029860;28;20506;-60
2023/03/09 02:21:39;;;;;;;15.30;11.00;;;;;;;5.30;67.21;97774.84;5030697;28;20050;-60
2023/03/09 02:24:16;;;;;;;16.05;11.27;;;;;;;5.34;67.17;97769.44;5017205;28;20050;-60
2023/03/09 02:26:47;;;;;;;15.63;11.50;;;;;;;5.29;66.98;97795.28;5030573;28;20060;-61
2023/03/09 02:29:16;;;;;;;15.65;11.50;;;;;;;5.24;67.08;97793.56;5031468;28;20054;-60
2023/03/09 02:31:44;;;;;;;17.70;12.55;;;;;;;5.20;67.22;97802.91;5029516;28;20049;-60
2023/03/09 02:34:12;;;;;;;16.55;12.10;;;;;;;5.15;67.67;97803.94;5030039;28;20061;-60
2023/03/09 02:36:40;;;;;;;19.67;14.35;;;;;;;5.17;67.49;97796.13;5031110;28;20064;-59
2023/03/09 02:39:15;;;;;;;18.27;12.95;;;;;;;5.23;67.02;97808.53;5032340;28;20057;-59
2023/03/09 02:41:42;;;;;;;15.95;12.10;;;;;;;5.08;67.57;97818.31;5029347;28;20515;-59
2023/03/09 02:44:10;;;;;;;20.23;13.82;;;;;;;5.14;68.09;97815.31;5031253;28;20049;-59
2023/03/09 02:46:39;;;;;;;20.63;13.82;;;;;;;5.20;68.12;97823.00;5028949;28;20060;-59
2023/03/09 02:49:06;;;;;;;18.55;13.60;;;;;;;5.20;68.11;97830.50;5027797;28;20403;-60
2023/03/09 02:51:33;;;;;;;17.05;13.05;;;;;;;5.20;67.76;97836.81;5030798;28;20062;-59
2023/03/09 02:54:00;;;;;;;18.98;12.77;;;;;;;5.25;68.36;97849.59;5029017;28;20480;-59
2023/03/09 02:56:27;;;;;;;20.55;14.10;;;;;;;5.32;67.74;97849.03;5028847;28;20050;-59
2023/03/09 02:58:55;;;;;;;18.38;12.73;;;;;;;5.31;68.07;97844.63;5030797;28;20053;-60
2023/03/09 03:01:22;;;;;;;19.13;13.70;;;;;;;5.35;68.30;97846.34;5025361;28;20049;-58
2023/03/09 03:03:50;;;;;;;18.77;13.00;;;;;;;5.36;67.37;97845.22;5030035;28;20103;-58
2023/03/09 03:06:18;;;;;;;17.70;12.88;;;;;;;5.37;67.76;97843.25;5028828;28;20053;-60
2023/03/09 03:08:48;;;;;;;18.50;13.43;;;;;;;5.28;67.04;97835.91;5039387;28;20394;-58
2023/03/09 03:11:15;;;;;;;17.80;12.57;;;;;;;5.28;67.52;97846.94;5033520;27;20052;-58
2023/03/09 03:13:43;;;;;;;19.95;14.02;;;;;;;5.21;67.90;97845.91;5030414;28;20510;-58
2023/03/09 03:16:10;;;;;;;23.30;15.27;;;;;;;5.15;67.73;97855.56;5025812;28;20054;-58
2023/03/09 03:18:37;;;;;;;18.15;13.15;;;;;;;5.18;67.31;97866.69;5029558;28;20056;-58
2023/03/09 03:21:06;;;;;;;20.35;13.85;;;;;;;5.15;67.37;97881.19;5030843;28;20061;-58
2023/03/09 03:23:33;;;;;;;25.48;16.02;;;;;;;5.18;67.78;97880.50;5063510;27;20484;-59
2023/03/09 03:26:05;;;;;;;20.77;14.75;;;;;;;5.05;67.88;97884.38;5030338;28;20053;-59
2023/03/09 03:28:33;;;;;;;17.70;12.73;;;;;;;5.15;67.91;97886.72;5030436;28;20436;-58
2023/03/09 03:31:00;;;;;;;18.02;12.73;;;;;;;5.26;67.79;97890.63;5027801;28;20415;-58
2023/03/09 03:33:28;;;;;;;18.27;13.10;;;;;;;5.28;67.95;97880.06;5029661;28;20064;-58
2023/03/09 03:35:55;;;;;;;19.17;13.48;;;;;;;5.35;67.90;97882.25;5029298;28;20050;-58
2023/03/09 03:38:24;;;;;;;19.27;13.13;;;;;;;5.28;67.99;97882.00;5029637;28;20049;-59
2023/03/09 03:40:53;;;;;;;18.60;13.20;;;;;;;5.34;67.61;97877.88;5029668;28;20064;-58
2023/03/09 03:43:20;;;;;;;20.40;13.53;;;;;;;5.31;67.55;97873.03;5028630;28;20411;-58
2023/03/09 03:45:47;;;;;;;20.20;14.38;;;;;;;5.25;67.50;97879.97;5025820;27;20057;-59
2023/03/09 03:48:15;;;;;;;18.00;12.70;;;;;;;5.27;68.08;97892.25;5029287;28;20057;-59
2023/03/09 03:50:42;;;;;;;16.88;12.18;;;;;;;5.38;67.53;97897.34;5028978;28;20492;-59
2023/03/09 03:53:09;;;;;;;17.98;12.90;;;;;;;5.35;67.90;97906.28;4990278;28;20513;-59
2023/03/09 03:55:38;;;;;;;18.33;13.30;;;;;;;5.44;67.58;97918.03;4989723;28;20062;-58
2023/03/09 03:58:05;;;;;;;19.02;12.38;;;;;;;5.44;67.55;97918.03;4990250;28;20046;-59
2023/03/09 04:00:32;;;;;;;18.23;12.80;;;;;;;5.44;67.80;97913.31;4986965;28;20058;-59
2023/03/09 04:03:00;;;;;;;19.58;13.65;;;;;;;5.44;67.78;97926.31;4989051;28;20128;-59
2023/03/09 04:05:27;;;;;;;17.02;12.15;;;;;;;5.42;68.15;97918.38;4988417;28;20058;-60
2023/03/09 04:07:54;;;;;;;18.27;12.85;;;;;;;5.46;67.66;97930.34;4989530;28;20476;-58
2023/03/09 04:10:23;;;;;;;21.50;14.50;;;;;;;5.49;67.90;97935.16;4990156;28;20511;-58
2023/03/09 04:12:55;;;;;;;24.23;15.43;;;;;;;5.47;68.25;97956.00;4991364;28;20060;-58
2023/03/09 04:15:22;;;;;;;20.65;13.77;;;;;;;5.42;68.56;97965.31;4986063;28;20058;-59
2023/03/09 04:17:50;;;;;;;20.73;14.15;;;;;;;5.47;68.26;97967.03;4990595;28;20480;-59
2023/03/09 04:20:17;;;;;;;21.60;14.57;;;;;;;5.43;68.51;97968.88;4988796;28;20062;-59
2023/03/09 04:22:49;;;;;;;21.23;14.07;;;;;;;5.51;67.75;97967.16;4989888;28;20073;-59
2023/03/09 04:25:16;;;;;;;18.85;13.02;;;;;;;5.53;68.18;97967.63;4980319;28;20058;-58
2023/03/09 04:27:43;;;;;;;21.95;14.27;;;;;;;5.50;68.13;97963.56;4990361;28;20047;-58
2023/03/09 04:30:13;;;;;;;23.15;15.02;;;;;;;5.51;67.70;97967.97;4988731;28;20076;-58
2023/03/09 04:32:40;;;;;;;27.00;16.83;;;;;;;5.53;68.03;97968.44;4988998;28;20077;-59
2023/03/09 04:35:12;;;;;;;22.63;14.25;;;;;;;5.52;68.58;97977.03;4988697;28;20050;-59
2023/03/09 04:37:39;;;;;;;20.88;14.23;;;;;;;5.50;68.07;97966.34;4986000;28;20042;-59
2023/03/09 04:40:08;;;;;;;19.83;13.77;;;;;;;5.53;68.24;97979.47;4989742;28;20057;-58
2023/03/09 04:42:35;;;;;;;22.40;13.30;;;;;;;5.57;68.48;97980.41;4990415;28;21406;-59
2023/03/09 04:45:03;;;;;;;21.95;14.00;;;;;;;5.55;68.31;97990.19;4988490;28;20054;-59
2023/03/09 04:47:32;;;;;;;21.20;14.10;;;;;;;5.60;68.50;98001.78;4990438;28;20073;-59
2023/03/09 04:49:59;;;;;;;19.38;13.43;;;;;;;5.59;68.42;98002.16;4987547;28;20050;-59
2023/03/09 04:52:26;;;;;;;20.95;14.38;;;;;;;5.63;68.98;98006.66;5015489;28;20057;-59
2023/03/09 04:54:54;;;;;;;20.38;13.98;;;;;;;5.63;68.66;98019.66;5027869;28;20054;-59
2023/03/09 04:57:22;;;;;;;20.90;13.93;;;;;;;5.65;68.71;98017.38;5026615;28;20057;-59
2023/03/09 04:59:49;;;;;;;20.75;13.88;;;;;;;5.67;68.64;98015.88;5028237;28;20135;-59
2023/03/09 05:02:16;;;;;;;22.35;14.05;;;;;;;5.69;68.67;98016.34;5028811;28;20054;-59
2023/03/09 05:04:45;;;;;;;26.98;16.05;;;;;;;5.73;68.33;98001.81;5042443;28;20046;-59
2023/03/09 05:07:12;;;;;;;19.67;14.25;;;;;;;5.69;67.96;98005.28;5029183;28;20492;-60
2023/03/09 05:09:40;;;;;;;22.05;14.23;;;;;;;5.63;68.19;98003.88;5029022;28;20052;-60
2023/03/09 05:12:07;;;;;;;19.88;13.52;;;;;;;5.67;68.12;98020.59;5029013;28;20049;-60
2023/03/09 05:14:34;;;;;;;19.65;14.20;;;;;;;5.66;68.63;98024.47;5029051;28;20065;-59
2023/03/09 05:17:01;;;;;;;21.05;13.57;;;;;;;5.66;68.06;98030.81;5027666;28;20056;-60
2023/03/09 05:19:29;;;;;;;18.73;13.45;;;;;;;5.63;68.24;98036.22;5032476;28;20064;-60
2023/03/09 05:21:57;;;;;;;20.65;13.75;;;;;;;5.67;68.00;98037.16;5032542;28;20060;-59
2023/03/09 05:24:25;;;;;;;21.70;14.30;;;;;;;5.66;68.21;98041.06;5032765;28;20381;-59
2023/03/09 05:26:52;;;;;;;19.45;13.80;;;;;;;5.64;68.15;98038.63;5032177;28;20053;-60
2023/03/09 05:29:19;;;;;;;21.27;14.43;;;;;;;5.64;68.34;98037.81;5032639;28;20053;-60
2023/03/09 05:31:46;;;;;;;20.33;14.55;;;;;;;5.65;68.16;98034.72;5030288;27;20376;-60
2023/03/09 05:34:14;;;;;;;20.67;14.30;;;;;;;5.65;67.87;98029.22;5032421;28;20065;-59
2023/03/09 05:36:41;;;;;;;23.73;15.57;;;;;;;5.66;67.72;98039.09;5032311;28;20060;-60
2023/03/09 05:39:10;;;;;;;22.90;15.07;;;;;;;5.68;67.61;98047.84;5032052;28;20049;-60
2023/03/09 05:41:39;;;;;;;20.80;14.30;;;;;;;5.66;67.55;98058.41;5031385;28;20069;-59
2023/03/09 05:44:06;;;;;;;20.85;14.00;;;;;;;5.63;67.00;98064.63;5032297;28;20054;-60
2023/03/09 05:46:33;;;;;;;24.77;14.95;;;;;;;5.61;67.54;98071.66;5030325;28;20518;-60
2023/03/09 05:49:01;;;;;;;21.17;13.93;;;;;;;5.60;67.31;98079.13;5031613;28;20402;-60
2023/03/09 05:51:28;;;;;;;20.63;14.57;;;;;;;5.64;67.71;98087.53;5031551;28;20054;-60
2023/03/09 05:53:56;;;;;;;23.30;14.93;;;;;;;5.64;67.45;98087.53;5032390;28;20487;-60
2023/03/09 05:56:24;;;;;;;25.05;15.55;;;;;;;5.64;67.32;98088.34;5027189;28;20060;-60
2023/03/09 05:58:52;;;;;;;22.40;15.57;;;;;;;5.63;67.38;98096.97;5045960;28;20060;-60
2023/03/09 06:01:21;;;;;;;21.55;15.57;;;;;;;5.67;67.33;98114.50;5038291;28;20458;-60
2023/03/09 06:03:49;;;;;;;24.20;15.70;;;;;;;5.62;67.32;98112.72;5032041;28;20057;-60
2023/03/09 06:06:17;;;;;;;25.00;15.90;;;;;;;5.64;67.16;98120.66;5029497;27;20056;-60
2023/03/09 06:08:45;;;;;;;23.17;15.60;;;;;;;5.62;67.42;98131.25;5015054;28;20057;-60
2023/03/09 06:11:13;;;;;;;22.17;15.15;;;;;;;5.67;66.99;98123.56;5023629;28;20418;-59
2023/03/09 06:13:42;;;;;;;22.73;14.82;;;;;;;5.71;67.34;98134.72;5029572;28;20430;-60
2023/03/09 06:16:13;;;;;;;21.10;14.43;;;;;;;5.70;66.86;98130.38;5023975;27;20061;-60
2023/03/09 06:18:41;;;;;;;22.45;16.02;;;;;;;5.67;67.21;98137.38;5029160;28;20046;-61
2023/03/09 06:21:09;;;;;;;24.88;16.70;;;;;;;5.76;66.79;98139.25;5040881;27;20431;-60
2023/03/09 06:23:37;;;;;;;25.38;16.85;;;;;;;5.66;66.61;98137.72;5029479;28;20046;-61
2023/03/09 06:26:05;;;;;;;27.15;17.58;;;;;;;5.66;67.01;98129.44;5029004;28;20083;-60
2023/03/09 06:28:32;;;;;;;26.27;17.55;;;;;;;5.67;66.97;98142.91;5026365;28;20498;-61
2023/03/09 06:31:06;;;;;;;30.83;19.40;;;;;;;5.73;66.89;98145.44;5024461;27;20065;-60
2023/03/09 06:33:34;;;;;;;28.27;18.65;;;;;;;5.70;66.90;98147.75;5028995;28;20488;-59
2023/03/09 06:36:02;;;;;;;31.45;19.20;;;;;;;5.69;66.96;98161.88;5029742;28;20057;-60
2023/03/09 06:38:29;;;;;;;31.67;19.20;;;;;;;5.75;67.22;98166.03;5031223;28;20057;-59
2023/03/09 06:40:57;;;;;;;26.42;17.70;;;;;;;5.73;66.90;98162.81;5030795;28;20053;-61
2023/03/09 06:43:24;;;;;;;26.58;18.27;;;;;;;5.75;66.63;98160.53;5031162;28;20053;-60
2023/03/09 06:45:51;;;;;;;27.52;18.63;;;;;;;5.77;66.67;98168.47;5028564;28;20049;-60
2023/03/09 06:48:21;;;;;;;38.00;21.50;;;;;;;5.83;66.53;98172.66;5028839;28;20053;-60
2023/03/09 06:50:49;;;;;;;35.42;22.35;;;;;;;5.87;66.91;98168.84;5028720;28;20065;-60
2023/03/09 06:53:16;;;;;;;43.63;22.85;;;;;;;5.82;66.67;98171.84;5028295;27;20054;-61
2023/03/09 06:55:44;;;;;;;33.13;20.20;;;;;;;5.86;66.64;98174.75;5026995;27;20057;-60
2023/03/09 06:58:11;;;;;;;33.30;20.63;;;;;;;5.91;66.35;98169.00;5026594;28;20061;-60
2023/03/09 07:00:40;;;;;;;32.38;20.55;;;;;;;6.01;66.15;98168.59;5025691;28;20496;-61
2023/03/09 07:03:13;;;;;;;29.17;18.58;;;;;;;5.99;66.09;98172.88;5028422;28;20054;-61
2023/03/09 07:05:42;;;;;;;41.15;21.88;;;;;;;5.93;65.72;98169.47;5025894;28;21485;-60
2023/03/09 07:08:09;;;;;;;35.15;21.70;;;;;;;5.85;65.85;98165.63;5025060;28;20062;-60
2023/03/09 07:10:37;;;;;;;29.90;19.13;;;;;;;5.91;65.76;98177.28;5026537;28;20056;-60
2023/03/09 07:13:04;;;;;;;30.08;19.88;;;;;;;5.94;65.56;98178.56;5024315;27;20049;-60
2023/03/09 07:15:31;;;;;;;28.60;18.70;;;;;;;6.07;65.56;98163.69;5023087;27;20053;-60
2023/03/09 07:17:58;;;;;;;29.85;18.73;;;;;;;6.12;65.17;98170.94;5026211;27;20507;-60
2023/03/09 07:20:27;;;;;;;28.38;17.90;;;;;;;6.19;64.90;98168.41;5023498;28;20050;-61
2023/03/09 07:22:56;;;;;;;26.60;18.00;;;;;;;6.15;65.08;98168.28;5025693;28;20053;-59
2023/03/09 07:25:23;;;;;;;22.15;15.00;;;;;;;6.17;65.01;98176.22;5026984;28;20049;-58
2023/03/09 07:27:50;;;;;;;26.50;17.35;;;;;;;6.13;65.57;98197.41;5028504;28;20057;-58
2023/03/09 07:30:18;;;;;;;25.02;16.55;;;;;;;6.21;64.84;98188.22;5028374;27;20492;-58
2023/03/09 07:32:45;;;;;;;26.70;16.98;;;;;;;6.27;64.82;98190.44;5029234;28;20057;-59
2023/03/09 07:35:13;;;;;;;23.52;15.32;;;;;;;6.52;64.68;98186.91;5029972;28;20080;-58
2023/03/09 07:37:40;;;;;;;18.80;12.88;;;;;;;6.66;64.09;98196.50;5029912;28;20391;-58
2023/03/09 07:40:11;;;;;;;21.17;14.60;;;;;;;6.74;64.09;98197.53;5028160;28;20045;-58
2023/03/09 07:42:38;;;;;;;20.75;13.57;;;;;;;6.87;63.73;98199.16;5030103;28;20518;-59
2023/03/09 07:45:07;;;;;;;21.42;13.93;;;;;;;7.23;63.12;98205.81;5028396;28;20055;-59
2023/03/09 07:47:34;;;;;;;19.20;13.60;;;;;;;7.43;63.06;98217.09;5013016;28;20057;-59
2023/03/09 07:50:04;;;;;;;19.92;13.32;;;;;;;7.53;62.32;98228.50;5029140;28;20076;-60
2023/03/09 07:52:31;;;;;;;18.15;13.43;;;;;;;7.61;62.83;98232.28;5028847;28;20065;-60
2023/03/09 07:54:58;;;;;;;16.83;12.18;;;;;;;7.69;61.88;98236.91;5029192;28;20056;-59
2023/03/09 07:57:31;;;;;;;18.00;12.25;;;;;;;7.69;60.66;98239.66;5028721;28;20049;-59
2023/03/09 07:59:58;;;;;;;16.98;12.15;;;;;;;7.75;60.85;98231.09;5029277;28;20050;-60
2023/03/09 08:02:26;;;;;;;19.13;13.27;;;;;;;7.97;61.34;98230.56;5027701;28;20056;-60
2023/03/09 08:04:53;;;;;;;19.08;12.75;;;;;;;8.00;59.65;98240.13;5027826;28;20061;-60
2023/03/09 08:07:20;;;;;;;19.55;13.52;;;;;;;7.98;59.97;98257.16;5028369;28;20049;-60
2023/03/09 08:09:48;;;;;;;18.02;12.70;;;;;;;8.01;60.38;98250.09;5027381;28;20057;-60
2023/03/09 08:12:15;;;;;;;19.10;12.85;;;;;;;8.01;61.02;98261.97;5026845;27;20392;-60
2023/03/09 08:14:44;;;;;;;18.33;13.43;;;;;;;8.06;60.50;98267.28;5029167;28;20418;-59
2023/03/09 08:17:11;;;;;;;19.40;13.32;;;;;;;8.09;60.78;98261.03;5030153;28;20057;-60
2023/03/09 08:19:38;;;;;;;20.20;14.02;;;;;;;8.15;60.53;98269.91;5029981;28;20057;-60
2023/03/09 08:22:05;;;;;;;21.38;13.85;;;;;;;8.24;59.77;98278.06;5030002;28;20053;-60
2023/03/09 08:24:33;;;;;;;21.55;14.05;;;;;;;8.19;59.67;98286.63;5030653;28;20050;-59
2023/03/09 08:27:00;;;;;;;19.70;13.32;;;;;;;8.24;59.42;98283.63;5029418;28;20080;-60
2023/03/09 08:29:28;;;;;;;21.20;14.73;;;;;;;8.22;60.75;98285.94;5027608;28;20065;-60
2023/03/09 08:31:57;;;;;;;21.23;14.77;;;;;;;8.26;59.10;98293.19;5029593;28;20076;-60
2023/03/09 08:34:24;;;;;;;19.80;13.70;;;;;;;8.24;60.66;98311.34;5017968;28;20385;-60
2023/03/09 08:36:51;;;;;;;26.33;16.55;;;;;;;8.26;60.52;98311.81;5010628;28;20058;-59
2023/03/09 08:39:18;;;;;;;24.30;16.33;;;;;;;8.22;59.59;98316.44;5010962;28;20050;-60
2023/03/09 08:41:46;;;;;;;25.02;16.80;;;;;;;8.17;59.58;98316.66;5010089;28;20420;-59
2023/03/09 08:44:13;;;;;;;32.55;17.77;;;;;;;8.12;60.06;98318.53;5013954;28;20066;-60
2023/03/09 08:46:40;;;;;;;29.35;16.98;;;;;;;8.09;60.22;98322.03;5029439;28;20053;-59
2023/03/09 08:49:09;;;;;;;26.65;16.90;;;;;;;8.06;60.01;98324.69;5030280;28;20056;-60
2023/03/09 08:51:36;;;;;;;27.17;16.63;;;;;;;8.09;60.73;98332.31;5029750;28;20054;-59
2023/03/09 08:54:04;;;;;;;30.13;18.13;;;;;;;8.08;60.24;98339.00;5033017;28;20479;-60
2023/03/09 08:56:31;;;;;;;28.23;17.35;;;;;;;8.07;60.28;98337.41;5032571;28;20053;-60
2023/03/09 08:58:58;;;;;;;31.15;18.45;;;;;;;8.04;60.26;98346.41;5031485;28;20609;-60
2023/03/09 09:01:26;;;;;;;28.77;17.40;;;;;;;8.13;59.75;98336.00;5032591;28;20056;-60
2023/03/09 09:03:53;;;;;;;30.50;19.42;;;;;;;8.13;59.85;98347.09;5033049;28;20423;-60
2023/03/09 09:06:22;;;;;;;28.77;18.38;;;;;;;8.14;60.67;98359.78;5032874;28;20385;-59
2023/03/09 09:08:49;;;;;;;27.75;17.75;;;;;;;8.20;60.13;98358.38;5065132;27;20508;-60
2023/03/09 09:11:17;;;;;;;26.00;16.95;;;;;;;8.28;60.43;98368.53;5029675;28;20060;-60
2023/03/09 09:13:45;;;;;;;27.70;16.92;;;;;;;8.33;61.12;98361.94;5032861;28;20064;-60
2023/03/09 09:16:13;;;;;;;23.65;16.40;;;;;;;8.33;60.85;98373.03;5012362;28;20404;-60
2023/03/09 09:18:41;;;;;;;25.52;17.00;;;;;;;8.37;59.90;98367.59;5012816;28;20515;-60
2023/03/09 09:21:11;;;;;;;29.25;18.77;;;;;;;8.36;60.05;98377.88;5012753;28;20054;-60
2023/03/09 09:23:41;;;;;;;27.52;18.00;;;;;;;8.27;60.76;98383.56;5029713;28;20049;-60
2023/03/09 09:26:10;;;;;;;29.52;18.80;;;;;;;8.27;60.89;98391.06;5032699;28;20064;-60
2023/03/09 09:28:38;;;;;;;29.85;19.65;;;;;;;8.21;60.28;98386.91;5031853;28;20064;-60
2023/03/09 09:31:07;;;;;;;32.33;18.88;;;;;;;8.23;60.89;98398.47;5032360;28;20045;-60
2023/03/09 09:33:35;;;;;;;38.60;20.98;;;;;;;8.18;59.84;98402.28;5032340;28;20060;-60
2023/03/09 09:36:06;;;;;;;32.10;18.80;;;;;;;8.24;59.55;98402.88;5032200;28;20054;-60
2023/03/09 09:38:34;;;;;;;32.75;20.20;;;;;;;8.28;59.44;98410.13;5032517;28;20423;-60
2023/03/09 09:41:07;;;;;;;30.23;18.67;;;;;;;8.34;60.75;98396.84;5031954;28;20492;-59
2023/03/09 09:43:35;;;;;;;31.70;19.98;;;;;;;8.40;59.21;98401.00;5030974;27;20065;-60
2023/03/09 09:46:04;;;;;;;32.42;20.67;;;;;;;8.41;60.48;98413.72;5031664;28;20521;-59
2023/03/09 09:48:32;;;;;;;34.42;20.17;;;;;;;8.34;61.13;98413.50;5032167;28;20069;-60
2023/03/09 09:51:11;;;;;;;33.47;19.45;;;;;;;8.45;59.27;98413.84;5030995;28;20130;-60
2023/03/09 09:53:50;;;;;;;31.20;19.25;;;;;;;8.46;60.59;98407.94;5029526;28;20057;-60
2023/03/09 09:56:24;;;;;;;31.23;20.03;;;;;;;8.66;58.77;98402.56;5031742;28;20068;-60
2023/03/09 09:59:01;;;;;;;33.22;20.65;;;;;;;8.60;59.42;98407.53;5031320;28;20056;-60
2023/03/09 10:01:35;;;;;;;32.83;20.90;;;;;;;8.83;59.26;98412.53;5030858;28;20053;-60
2023/03/09 10:04:10;;;;;;;31.77;20.75;;;;;;;9.00;58.68;98416.97;5031561;28;20483;-60
2023/03/09 10:06:39;;;;;;;35.30;21.50;;;;;;;9.13;57.92;98407.41;5031534;28;20053;-59
2023/03/09 10:09:12;;;;;;;33.38;20.80;;;;;;;9.11;59.06;98418.06;5031910;28;20060;-60
2023/03/09 10:11:44;;;;;;;33.33;20.85;;;;;;;9.12;57.77;98414.16;5031584;28;20404;-60
2023/03/09 10:14:21;;;;;;;33.67;21.13;;;;;;;9.09;57.85;98421.22;5030538;28;20476;-60
2023/03/09 10:16:55;;;;;;;31.65;19.90;;;;;;;9.13;58.42;98432.41;5021287;27;20056;-60
2023/03/09 10:19:32;;;;;;;33.13;21.05;;;;;;;8.96;57.62;98432.72;5031948;28;20064;-60
2023/03/09 10:22:01;;;;;;;33.75;21.35;;;;;;;8.94;58.39;98441.41;5031636;28;20052;-60
2023/03/09 10:24:30;;;;;;;36.10;22.00;;;;;;;8.96;58.66;98443.84;5031921;28;20057;-59
2023/03/09 10:27:02;;;;;;;34.42;21.00;;;;;;;8.93;59.13;98443.38;5031560;28;20569;-59
2023/03/09 10:29:43;;;;;;;28.98;18.02;;;;;;;9.00;58.65;98444.75;5030399;28;20391;-59
2023/03/09 10:32:19;;;;;;;30.02;19.35;;;;;;;9.01;58.88;98468.56;5031361;28;20427;-60
2023/03/09 10:34:54;;;;;;;36.08;22.08;;;;;;;8.92;59.70;98471.50;5031565;28;20057;-59
2023/03/09 10:37:25;;;;;;;34.38;20.77;;;;;;;8.81;59.13;98484.25;5031294;28;20053;-60
2023/03/09 10:39:53;;;;;;;32.30;20.05;;;;;;;8.85;59.76;98471.31;5030896;28;20076;-60
2023/03/09 10:42:23;;;;;;;29.10;18.30;;;;;;;8.87;59.76;98467.00;5030905;28;20049;-60
2023/03/09 10:45:05;;;;;;;26.38;17.05;;;;;;;8.91;59.25;98465.13;5029821;28;20496;-60
2023/03/09 10:47:54;;;;;;;31.05;18.33;;;;;;;8.92;58.97;98465.94;5031531;28;20049;-60
2023/03/09 10:50:22;;;;;;;29.02;18.90;;;;;;;8.95;60.25;98462.47;5030990;28;20053;-60
2023/03/09 10:52:50;;;;;;;28.48;18.58;;;;;;;9.06;58.71;98468.34;5030286;28;20049;-60
2023/03/09 10:55:39;;;;;;;29.10;18.80;;;;;;;9.09;59.40;98473.16;5030761;28;20468;-60
2023/03/09 10:58:22;;;;;;;29.83;18.27;;;;;;;9.20;57.39;98470.69;5031195;28;20050;-60
2023/03/09 11:00:57;;;;;;;34.70;20.70;;;;;;;8.89;58.74;98478.56;5029577;27;20049;-60
2023/03/09 11:03:26;;;;;;;33.70;20.48;;;;;;;8.96;58.98;98477.97;5030176;28;20137;-61
2023/03/09 11:05:53;;;;;;;29.55;18.00;;;;;;;8.88;59.66;98476.97;5030564;28;20423;-60
2023/03/09 11:08:26;;;;;;;32.50;20.15;;;;;;;8.91;58.59;98484.56;5031133;28;20061;-60
2023/03/09 11:11:01;;;;;;;30.30;18.83;;;;;;;8.93;59.35;98490.59;5030609;28;20053;-60
2023/03/09 11:13:30;;;;;;;32.40;19.40;;;;;;;9.01;58.59;98488.00;5030452;28;20057;-60
2023/03/09 11:16:15;;;;;;;33.60;20.83;;;;;;;9.03;58.92;98500.41;5028513;27;20054;-60
2023/03/09 11:18:43;;;;;;;33.03;19.98;;;;;;;9.05;59.11;98511.13;5031019;28;20045;-60
2023/03/09 11:21:22;;;;;;;30.92;19.38;;;;;;;9.10;58.80;98519.22;5030888;28;20147;-60
2023/03/09 11:23:53;;;;;;;32.97;19.83;;;;;;;9.05;59.59;98514.75;5030165;28;20049;-59
2023/03/09 11:26:25;;;;;;;31.63;20.17;;;;;;;9.07;60.00;98511.59;5031397;28;20468;-60
2023/03/09 11:29:00;;;;;;;33.53;20.15;;;;;;;9.04;59.42;98521.44;5029581;28;20060;-60
2023/03/09 11:31:36;;;;;;;37.25;19.98;;;;;;;9.09;59.91;98514.81;5030792;28;20052;-58
2023/03/09 11:34:06;;;;;;;31.60;20.02;;;;;;;9.15;60.46;98518.97;5030945;28;20064;-60
2023/03/09 11:36:39;;;;;;;31.85;18.83;;;;;;;9.14;59.72;98517.38;5030575;28;20060;-60